Time;durP1;ratioP1;P1;durP2;ratioP2;P2;SDS_P1;SDS_P2;PMS_P1;PMS_P2;Temp;Humidity;BMP_temperature;BMP_pressure;BME280_temperature;BME280_humidity;BME280_pressure;Samples;Min_cycle;Max_cycle;Signal;HPM_P1;HPM_P2
2023/07/19 00:06:46;;;;;;;2.70;1.50;;;;;;;15.34;75.76;98811.34;102616;1292;600159;-22
2023/07/19 00:09:14;;;;;;;2.80;1.90;;;;;;;15.07;76.38;98805.13;104850;1266;61087;-21
2023/07/19 00:11:42;;;;;;;3.30;1.60;;;;;;;14.85;77.23;98802.50;104782;1272;61184;-21
2023/07/19 00:14:10;;;;;;;4.80;1.40;;;;;;;14.65;77.92;98800.77;105097;1269;72110;-22
2023/07/19 00:16:37;;;;;;;2.70;1.10;;;;;;;15.01;78.13;98801.73;104841;1271;74426;-22
2023/07/19 00:19:05;;;;;;;3.90;1.50;;;;;;;15.46;76.56;98801.58;104906;1269;72646;-21
2023/07/19 00:21:48;;;;;;;2.60;1.60;;;;;;;15.46;75.67;98795.31;103144;1269;61272;-22
2023/07/19 00:24:16;;;;;;;1.90;1.50;;;;;;;15.26;75.60;98796.58;104906;1264;61256;-21
2023/07/19 00:26:45;;;;;;;14.80;2.50;;;;;;;15.00;76.55;98787.70;105040;1266;70977;-22
2023/07/19 00:29:12;;;;;;;5.20;2.20;;;;;;;14.75;77.37;98784.17;104780;1263;74323;-21
2023/07/19 00:31:40;;;;;;;1.70;1.20;;;;;;;14.53;77.86;98781.66;105158;1264;72645;-21
2023/07/19 00:34:08;;;;;;;1.80;1.20;;;;;;;14.86;78.29;98785.82;105161;1263;61173;-21
2023/07/19 00:36:36;;;;;;;3.20;1.30;;;;;;;15.29;76.74;98781.57;105124;1266;61129;-22
2023/07/19 00:46:41;;;;;;;4.90;1.70;;;;;;;14.60;77.26;98762.98;102678;1289;600102;-21
2023/07/19 00:49:10;;;;;;;8.00;1.60;;;;;;;14.38;77.89;98757.85;104837;1269;61634;-21
2023/07/19 00:51:38;;;;;;;5.20;1.00;;;;;;;14.77;78.21;98757.26;104907;1265;61188;-22
2023/07/19 00:54:06;;;;;;;2.20;1.30;;;;;;;15.14;77.58;98757.45;105701;1253;71175;-22
2023/07/19 00:56:33;;;;;;;3.70;1.50;;;;;;;15.11;76.82;98758.27;105687;1253;74187;-21
2023/07/19 01:00:48;;;;;;;1.60;1.40;;;;;;;14.79;77.57;98755.27;102640;1293;601229;-21
2023/07/19 01:10:58;;;;;;;6.60;1.80;;;;;;;14.00;80.84;98741.39;102627;1295;600012;-21
2023/07/19 01:13:25;;;;;;;2.10;1.60;;;;;;;14.58;80.13;98739.88;104882;1272;61215;-22
2023/07/19 01:15:53;;;;;;;2.30;1.20;;;;;;;15.12;77.92;98741.18;104798;1272;61103;-21
2023/07/19 01:26:00;;;;;;;2.30;1.80;;;;;;;14.40;77.86;98735.09;102685;1293;600184;-22
2023/07/19 01:28:28;;;;;;;4.10;2.00;;;;;;;14.10;78.60;98738.83;104870;1266;61164;-21
2023/07/19 01:30:55;;;;;;;4.50;1.30;;;;;;;13.94;79.28;98734.70;104840;1269;61190;-21
2023/07/19 01:33:23;;;;;;;1.80;1.20;;;;;;;14.38;79.19;98733.06;104783;1265;71015;-22
2023/07/19 01:36:01;;;;;;;4.60;1.00;;;;;;;14.88;76.91;98733.02;104788;1267;74299;-21
2023/07/19 01:46:10;;;;;;;3.60;1.70;;;;;;;14.07;77.48;98728.44;102644;1295;600234;-22
2023/07/19 01:48:39;;;;;;;5.60;1.90;;;;;;;13.69;79.74;98733.34;105049;1269;61234;-21
2023/07/19 01:51:07;;;;;;;2.90;1.10;;;;;;;13.47;80.08;98730.63;104832;1270;61167;-21
2023/07/19 01:53:34;;;;;;;6.30;1.10;;;;;;;13.84;80.77;98729.73;104901;1270;70928;-21
2023/07/19 01:56:03;;;;;;;2.50;1.40;;;;;;;14.31;79.12;98734.08;104923;1267;74309;-21
2023/07/19 01:58:30;;;;;;;3.20;1.80;;;;;;;14.35;78.04;98734.52;104863;1267;71720;-22
2023/07/19 02:00:58;;;;;;;3.90;1.50;;;;;;;14.13;78.31;98735.95;103170;1269;2730629;-22
2023/07/19 02:03:26;;;;;;;5.10;1.30;;;;;;;13.87;78.77;98739.67;105112;1268;61160;-21
2023/07/19 02:05:58;;;;;;;2.20;1.80;;;;;;;13.60;78.52;98740.80;105122;1267;72280;-21
2023/07/19 02:16:04;;;;;;;2.30;1.40;;;;;;;14.10;77.51;98743.23;102676;1295;599467;-24
2023/07/19 02:18:31;;;;;;;2.80;1.50;;;;;;;13.84;77.71;98750.80;105699;1254;61237;-22
2023/07/19 02:20:59;;;;;;;5.70;1.70;;;;;;;13.55;78.10;98747.93;105658;1253;61231;-22
2023/07/19 02:23:26;;;;;;;2.90;1.60;;;;;;;13.26;78.38;98751.95;105651;1254;69921;-24
2023/07/19 02:25:54;;;;;;;3.70;1.10;;;;;;;13.01;79.22;98755.45;105617;1259;72921;-22
2023/07/19 02:28:22;;;;;;;2.40;1.30;;;;;;;13.29;80.60;98757.75;105673;1257;72628;-22
2023/07/19 02:30:49;;;;;;;6.70;1.40;;;;;;;13.72;79.41;98753.57;104023;1256;2634992;-23
2023/07/19 02:33:17;;;;;;;2.00;1.60;;;;;;;13.78;79.10;98749.88;105934;1257;61186;-23
2023/07/19 02:35:45;;;;;;;2.80;1.80;;;;;;;13.63;79.06;98747.36;105827;1251;71020;-24
2023/07/19 02:38:12;;;;;;;4.10;1.70;;;;;;;13.41;79.26;98745.83;105671;1251;74372;-23
2023/07/19 02:40:40;;;;;;;5.60;1.80;;;;;;;13.16;79.59;98745.71;105786;1256;72207;-23
2023/07/19 02:50:47;;;;;;;4.20;1.70;;;;;;;14.29;78.31;98734.15;102640;1291;600057;-22
2023/07/19 02:53:15;;;;;;;2.90;1.70;;;;;;;14.35;77.32;98729.45;104854;1267;61130;-21
2023/07/19 02:55:44;;;;;;;3.30;2.30;;;;;;;14.41;77.23;98731.15;104820;1266;61071;-21
2023/07/19 02:58:12;;;;;;;3.50;1.70;;;;;;;14.41;76.49;98728.89;104745;1273;72265;-22
2023/07/19 03:00:43;;;;;;;3.20;1.40;;;;;;;14.39;76.53;98725.21;104819;1266;74322;-21
2023/07/19 03:03:11;;;;;;;3.00;1.40;;;;;;;15.14;76.12;98721.77;104783;1272;71413;-21
2023/07/19 03:05:43;;;;;;;2.20;1.50;;;;;;;16.03;73.91;98709.87;102847;1266;61251;-21
2023/07/19 03:08:11;;;;;;;2.40;1.40;;;;;;;16.40;71.93;98709.40;104665;1271;61196;-21
2023/07/19 03:10:39;;;;;;;3.40;1.60;;;;;;;16.48;70.69;98708.08;104791;1267;70956;-22
2023/07/19 03:20:59;;;;;;;3.20;1.60;;;;;;;16.50;70.61;98709.39;102640;1292;599382;-22
2023/07/19 03:23:30;;;;;;;1.60;1.10;;;;;;;16.56;70.83;98708.23;104775;1267;61117;-21
2023/07/19 03:25:58;;;;;;;2.20;1.20;;;;;;;17.23;70.86;98706.08;104692;1266;61850;-22
2023/07/19 03:28:27;;;;;;;2.60;1.40;;;;;;;17.94;69.16;98701.56;104770;1266;71103;-22
2023/07/19 03:30:58;;;;;;;2.50;1.60;;;;;;;18.24;67.70;98700.83;104841;1273;73056;-21
2023/07/19 03:40:49;;;;;;;4.30;1.90;;;;;;;17.63;65.22;98699.61;102628;1294;599376;-22
2023/07/19 03:43:17;;;;;;;2.60;1.80;;;;;;;17.32;67.98;98698.44;104850;1267;61132;-21
2023/07/19 03:45:45;;;;;;;3.50;2.10;;;;;;;17.28;67.41;98701.70;105285;1260;61049;-21
2023/07/19 03:54:54;;;;;;;3.30;2.10;;;;;;;17.13;67.63;98704.80;102657;1293;600176;-22
2023/07/19 04:05:00;;;;;;;5.60;3.10;;;;;;;17.04;69.38;98708.81;102589;1295;600273;-21
2023/07/19 04:07:28;;;;;;;5.70;2.30;;;;;;;17.21;68.53;98708.83;104814;1270;61192;-22
2023/07/19 04:09:55;;;;;;;5.80;2.30;;;;;;;17.39;68.34;98707.86;104828;1272;61215;-21
2023/07/19 04:12:23;;;;;;;4.20;1.70;;;;;;;17.67;67.65;98712.00;104817;1272;71314;-21
2023/07/19 04:14:51;;;;;;;5.00;2.10;;;;;;;18.36;67.12;98710.28;104840;1270;73188;-22
2023/07/19 04:17:24;;;;;;;3.90;2.00;;;;;;;19.01;64.20;98714.31;104729;1272;72682;-22
2023/07/19 04:19:52;;;;;;;5.30;2.00;;;;;;;18.91;63.32;98712.52;102711;1270;61290;-21
2023/07/19 04:22:20;;;;;;;4.50;1.90;;;;;;;18.95;63.57;98719.05;105056;1263;61163;-22
2023/07/19 04:32:26;;;;;;;3.60;2.40;;;;;;;19.06;64.98;98722.70;102616;1293;600214;-22
2023/07/19 04:34:54;;;;;;;3.30;2.20;;;;;;;19.22;64.82;98726.02;104879;1271;61844;-23
2023/07/19 04:37:22;;;;;;;5.50;2.20;;;;;;;19.44;64.80;98722.06;104817;1272;61228;-22
2023/07/19 04:39:50;;;;;;;4.20;2.60;;;;;;;19.49;63.95;98720.47;104857;1273;70743;-23
2023/07/19 04:42:19;;;;;;;5.20;2.20;;;;;;;19.53;62.92;98720.63;105094;1269;73160;-23
2023/07/19 04:44:47;;;;;;;8.80;2.50;;;;;;;19.62;63.20;98721.91;104754;1275;72686;-22
2023/07/19 04:54:53;;;;;;;6.50;2.50;;;;;;;20.01;62.10;98719.77;102963;1289;600198;-22
2023/07/19 04:57:21;;;;;;;4.10;2.40;;;;;;;20.24;61.71;98717.19;104831;1266;61116;-21
2023/07/19 04:59:49;;;;;;;4.70;2.40;;;;;;;20.57;60.59;98720.98;104789;1267;61112;-22
2023/07/19 05:09:55;;;;;;;4.10;2.00;;;;;;;21.03;58.44;98700.80;102676;1292;600204;-22
2023/07/19 05:12:23;;;;;;;2.70;2.00;;;;;;;21.23;58.13;98700.49;104894;1264;61117;-21
2023/07/19 05:14:51;;;;;;;6.30;2.30;;;;;;;21.33;57.40;98700.42;104877;1270;61131;-22
2023/07/19 05:17:19;;;;;;;4.80;2.10;;;;;;;21.43;57.25;98697.05;104862;1266;72285;-22
2023/07/19 05:19:48;;;;;;;4.80;1.90;;;;;;;21.45;56.74;98693.53;104928;1267;73244;-22
2023/07/19 05:22:16;;;;;;;6.70;2.30;;;;;;;21.48;57.02;98690.19;104810;1269;72650;-22
2023/07/19 05:24:44;;;;;;;2.50;2.20;;;;;;;21.52;57.25;98687.49;102965;1269;2682842;-22
2023/07/19 05:27:15;;;;;;;3.10;2.20;;;;;;;21.67;56.69;98685.17;105070;1263;61088;-22
2023/07/19 05:29:43;;;;;;;3.40;2.40;;;;;;;21.79;56.52;98685.29;104883;1263;72203;-22
2023/07/19 05:32:11;;;;;;;2.90;2.00;;;;;;;22.04;56.67;98681.96;105040;1268;74348;-22
2023/07/19 05:34:39;;;;;;;5.40;2.00;;;;;;;22.25;56.14;98680.02;105083;1263;71477;-23
2023/07/19 05:44:45;;;;;;;2.40;1.70;;;;;;;22.83;54.00;98676.70;102621;1294;600253;-22
2023/07/19 05:47:12;;;;;;;2.40;1.70;;;;;;;22.78;54.87;98674.50;104816;1270;61198;-23
2023/07/19 05:49:40;;;;;;;3.20;1.60;;;;;;;22.88;54.18;98672.46;105373;1258;61052;-22
2023/07/19 05:52:08;;;;;;;1.90;1.60;;;;;;;22.96;53.49;98670.74;105245;1261;71331;-23
2023/07/19 05:54:35;;;;;;;3.60;1.60;;;;;;;22.92;52.29;98668.03;105241;1266;74381;-22
2023/07/19 05:57:04;;;;;;;3.00;1.40;;;;;;;22.77;52.27;98663.52;105222;1263;72648;-23
2023/07/19 05:59:32;;;;;;;2.30;1.20;;;;;;;22.56;51.70;98661.31;103223;1257;2815768;-22
2023/07/19 06:09:39;;;;;;;2.70;1.30;;;;;;;22.55;48.99;98653.77;102639;1291;600402;-22
2023/07/19 06:12:07;;;;;;;1.80;1.10;;;;;;;22.62;47.27;98651.90;105014;1269;61183;-21
2023/07/19 06:14:35;;;;;;;2.20;1.00;;;;;;;22.66;46.08;98653.02;105651;1259;61059;-22
2023/07/19 06:17:03;;;;;;;3.20;1.10;;;;;;;22.52;44.15;98645.45;105750;1264;72308;-22
2023/07/19 06:19:31;;;;;;;1.80;0.90;;;;;;;22.29;43.61;98646.09;105677;1254;73134;-22
2023/07/19 06:21:59;;;;;;;1.60;0.80;;;;;;;22.20;44.12;98645.55;105700;1254;72142;-22
2023/07/19 06:24:27;;;;;;;1.90;1.10;;;;;;;22.35;44.53;98642.92;103702;1251;2825218;-22
2023/07/19 06:26:55;;;;;;;1.70;1.10;;;;;;;22.44;44.62;98644.41;105745;1257;61163;-22
2023/07/19 06:29:23;;;;;;;4.20;1.00;;;;;;;22.52;45.40;98642.98;105689;1258;72636;-22
2023/07/19 06:31:51;;;;;;;46.40;3.70;;;;;;;22.61;44.26;98643.86;105860;1257;74449;-22
2023/07/19 06:34:18;;;;;;;2.00;1.20;;;;;;;22.72;44.11;98641.42;105547;1264;72702;-22
2023/07/19 06:44:25;;;;;;;2.60;1.30;;;;;;;22.74;43.34;98645.54;102681;1292;599909;-22
2023/07/19 06:46:52;;;;;;;3.40;1.10;;;;;;;22.82;43.84;98643.60;104840;1271;61194;-22
2023/07/19 06:49:20;;;;;;;4.90;1.20;;;;;;;22.90;43.30;98645.02;104770;1271;61252;-22
2023/07/19 06:51:48;;;;;;;3.60;1.20;;;;;;;22.92;43.64;98648.23;104884;1272;70985;-22
2023/07/19 06:54:16;;;;;;;2.30;1.30;;;;;;;22.81;45.51;98649.33;104875;1267;74326;-22
2023/07/19 06:56:44;;;;;;;3.00;1.20;;;;;;;22.80;45.60;98650.43;104869;1267;72665;-22
2023/07/19 06:59:11;;;;;;;1.30;0.90;;;;;;;22.80;45.12;98652.19;102958;1266;2750471;-22
2023/07/19 07:01:39;;;;;;;4.30;1.20;;;;;;;22.76;45.30;98647.52;105132;1269;61126;-23
2023/07/19 07:04:08;;;;;;;3.10;1.20;;;;;;;22.66;46.60;98652.85;104850;1270;71112;-22
2023/07/19 07:06:36;;;;;;;6.10;1.10;;;;;;;22.61;44.82;98650.02;104932;1263;74327;-23
2023/07/19 07:16:47;;;;;;;3.10;1.30;;;;;;;23.01;45.62;98655.27;102625;1295;599349;-21
2023/07/19 07:19:15;;;;;;;2.60;1.00;;;;;;;23.08;45.83;98652.64;104840;1269;61149;-22
2023/07/19 07:21:42;;;;;;;2.60;1.20;;;;;;;23.17;45.09;98649.13;104874;1270;61155;-22
2023/07/19 07:24:10;;;;;;;1.90;1.30;;;;;;;23.22;44.94;98644.66;104823;1265;71041;-22
2023/07/19 07:26:37;;;;;;;1.70;1.00;;;;;;;22.94;45.47;98641.69;104828;1270;74372;-22
2023/07/19 07:29:05;;;;;;;3.70;1.40;;;;;;;23.14;45.68;98637.20;104844;1269;71717;-22
2023/07/19 07:31:33;;;;;;;1.60;1.10;;;;;;;23.11;44.70;98639.54;103104;1269;2786486;-22
2023/07/19 07:34:00;;;;;;;2.80;1.40;;;;;;;23.32;44.77;98638.17;105114;1269;61201;-22
2023/07/19 07:36:28;;;;;;;2.20;1.10;;;;;;;23.36;44.13;98636.02;105137;1269;72186;-22
2023/07/19 07:46:34;;;;;;;3.50;2.50;;;;;;;23.71;45.25;98630.21;102636;1292;600247;-22
2023/07/19 07:56:45;;;;;;;2.60;1.40;;;;;;;24.14;42.68;98626.59;102677;1293;599430;-22
2023/07/19 07:59:12;;;;;;;3.50;3.20;;;;;;;24.10;43.56;98621.48;104801;1269;61070;-21
2023/07/19 08:01:41;;;;;;;2.10;1.30;;;;;;;24.33;42.56;98621.60;104805;1272;61182;-21
2023/07/19 08:04:10;;;;;;;3.10;1.10;;;;;;;24.42;41.32;98625.24;104824;1267;71418;-21
2023/07/19 08:06:38;;;;;;;1.80;1.20;;;;;;;24.67;41.66;98621.09;104862;1270;72233;-21
2023/07/19 08:09:06;;;;;;;3.10;2.20;;;;;;;24.75;41.01;98619.71;104733;1267;70523;-22
2023/07/19 08:11:33;;;;;;;2.00;1.20;;;;;;;24.87;41.59;98620.31;103203;1264;2669419;-22
2023/07/19 08:14:01;;;;;;;2.30;1.20;;;;;;;25.12;40.94;98624.48;105097;1264;61002;-21
2023/07/19 08:16:29;;;;;;;1.70;1.20;;;;;;;25.26;41.25;98622.02;105092;1264;71038;-21
2023/07/19 08:18:57;;;;;;;3.30;1.40;;;;;;;25.10;41.91;98617.20;105090;1264;74357;-21
2023/07/19 08:29:04;;;;;;;1.50;0.80;;;;;;;25.35;38.89;98609.39;102700;1295;600017;-21
2023/07/19 08:31:31;;;;;;;1.50;0.90;;;;;;;24.98;39.83;98607.48;104899;1264;61119;-21
2023/07/19 08:33:59;;;;;;;2.40;1.30;;;;;;;24.70;40.48;98612.37;104879;1264;61173;-21
2023/07/19 08:36:27;;;;;;;1.30;1.10;;;;;;;24.60;40.23;98608.58;104894;1264;72352;-22
2023/07/19 08:38:55;;;;;;;3.40;1.10;;;;;;;24.60;40.11;98608.77;104872;1269;74301;-21
2023/07/19 08:41:23;;;;;;;5.00;1.20;;;;;;;24.48;38.48;98604.48;104813;1267;72635;-22
2023/07/19 08:43:53;;;;;;;1.20;0.90;;;;;;;24.53;38.56;98600.52;106700;1263;2685551;-22
2023/07/19 08:46:20;;;;;;;3.10;0.90;;;;;;;24.29;38.94;98604.71;108673;1262;59115;-22
2023/07/19 08:48:48;;;;;;;1.70;0.90;;;;;;;24.22;40.31;98603.41;108780;1263;72253;-23
2023/07/19 08:51:16;;;;;;;1.60;0.90;;;;;;;24.34;39.48;98598.50;108787;1263;73039;-23
2023/07/19 08:53:44;;;;;;;2.20;0.90;;;;;;;24.20;38.74;98598.36;108616;1263;71461;-22
2023/07/19 08:56:12;;;;;;;9.70;1.30;;;;;;;24.12;39.02;98597.17;108649;1265;58885;-22
2023/07/19 08:58:40;;;;;;;1.80;0.90;;;;;;;24.27;40.61;98596.59;108740;1262;58790;-22
2023/07/19 09:01:08;;;;;;;1.80;0.90;;;;;;;24.33;39.18;98591.55;108753;1262;71816;-23
2023/07/19 09:29:36;;;;;;;1.20;1.00;;;;;;;24.90;37.63;98577.85;103786;1282;616348;-23
2023/07/19 09:32:04;;;;;;;2.10;1.20;;;;;;;25.34;35.06;98568.01;105253;1269;61004;-23
2023/07/19 09:34:38;;;;;;;4.20;1.10;;;;;;;25.66;36.30;98564.38;105561;1263;61171;-22
2023/07/19 09:37:05;;;;;;;1.50;1.10;;;;;;;26.05;35.96;98558.37;105465;1263;71567;-23
2023/07/19 09:39:35;;;;;;;2.60;1.10;;;;;;;26.08;34.87;98553.35;105325;1266;74498;-23
2023/07/19 09:42:03;;;;;;;2.40;1.00;;;;;;;26.01;34.38;98554.39;103704;1258;2769279;-23
2023/07/19 09:44:33;;;;;;;2.30;1.20;;;;;;;26.20;35.74;98550.46;105691;1260;61157;-23
2023/07/19 09:47:01;;;;;;;8.90;1.20;;;;;;;26.31;33.51;98547.84;105633;1256;61041;-23
2023/07/19 09:49:45;;;;;;;1.50;0.90;;;;;;;26.39;34.13;98544.84;105627;1260;72263;-23
2023/07/19 09:52:13;;;;;;;1.00;0.90;;;;;;;26.38;33.54;98543.27;105760;1254;74551;-23
2023/07/19 09:54:40;;;;;;;2.50;1.10;;;;;;;25.94;33.49;98541.98;105677;1255;72372;-23
2023/07/19 09:57:07;;;;;;;8.00;1.30;;;;;;;25.93;33.29;98539.27;105640;1260;61111;-23
2023/07/19 09:59:43;;;;;;;1.70;1.00;;;;;;;26.07;33.99;98537.41;105734;1259;61152;-23
2023/07/19 10:02:11;;;;;;;1.80;1.10;;;;;;;26.08;35.15;98531.02;105624;1261;72944;-23
2023/07/19 10:04:39;;;;;;;6.90;1.40;;;;;;;25.89;33.98;98526.10;105641;1255;74315;-23
2023/07/19 10:07:09;;;;;;;7.00;1.30;;;;;;;26.04;34.52;98523.50;105680;1254;72567;-23
2023/07/19 10:09:44;;;;;;;11.40;1.40;;;;;;;26.14;34.88;98519.41;105704;1260;61220;-23
2023/07/19 10:12:17;;;;;;;1.60;0.90;;;;;;;26.27;34.01;98521.63;105674;1261;61217;-23
2023/07/19 10:14:54;;;;;;;3.60;1.10;;;;;;;26.55;33.61;98519.40;105758;1257;72837;-23
2023/07/19 10:17:21;;;;;;;1.80;1.00;;;;;;;26.88;33.90;98518.00;105638;1254;74374;-23
2023/07/19 10:20:12;;;;;;;1.00;0.90;;;;;;;27.08;32.76;98520.90;106006;1256;72630;-24
2023/07/19 10:22:49;;;;;;;1.10;0.90;;;;;;;27.30;32.58;98518.57;105964;1257;61173;-23
2023/07/19 10:25:21;;;;;;;1.20;1.10;;;;;;;27.51;32.42;98513.02;105976;1256;61087;-23
2023/07/19 10:27:58;;;;;;;1.00;0.90;;;;;;;27.50;30.76;98510.64;105941;1251;72821;-24
2023/07/19 10:30:52;;;;;;;2.40;1.40;;;;;;;27.23;32.58;98511.36;105992;1252;74316;-23
2023/07/19 10:33:26;;;;;;;2.40;1.10;;;;;;;27.09;32.88;98507.88;106013;1254;72603;-23
2023/07/19 10:35:55;;;;;;;28.30;2.20;;;;;;;27.35;32.76;98499.61;105938;1257;61195;-23
2023/07/19 10:38:27;;;;;;;4.20;1.10;;;;;;;27.39;31.03;98494.25;106015;1252;61132;-23
2023/07/19 10:40:58;;;;;;;2.80;1.50;;;;;;;27.38;32.86;98491.87;105772;1254;71872;-23
2023/07/19 10:43:29;;;;;;;2.70;1.20;;;;;;;27.61;32.04;98486.48;105929;1257;74438;-23
2023/07/19 10:46:18;;;;;;;4.20;1.20;;;;;;;27.68;32.15;98484.54;105749;1255;72639;-23
2023/07/19 10:48:45;;;;;;;3.30;1.00;;;;;;;27.51;32.16;98483.98;105896;1254;61144;-23
2023/07/19 10:51:12;;;;;;;1.20;1.10;;;;;;;27.67;31.91;98479.92;105807;1252;61167;-23
2023/07/19 10:54:00;;;;;;;1.90;1.00;;;;;;;27.78;30.63;98476.67;106009;1252;72965;-23
2023/07/19 10:56:27;;;;;;;2.00;1.00;;;;;;;27.70;32.31;98476.39;105956;1254;74858;-23
2023/07/19 10:58:58;;;;;;;1.40;1.10;;;;;;;27.58;32.86;98476.69;105778;1252;72596;-23
2023/07/19 11:01:29;;;;;;;1.70;1.10;;;;;;;27.59;33.05;98478.13;105747;1257;61269;-23
2023/07/19 11:04:03;;;;;;;2.50;1.10;;;;;;;27.38;34.02;98477.56;105759;1251;61221;-23
2023/07/19 11:06:32;;;;;;;7.70;1.50;;;;;;;27.49;34.89;98470.48;105750;1260;72973;-24
2023/07/19 11:09:03;;;;;;;3.40;1.30;;;;;;;27.42;33.75;98471.52;105571;1251;74238;-24
2023/07/19 11:11:33;;;;;;;1.70;1.10;;;;;;;27.60;33.54;98469.38;105584;1260;72422;-24
2023/07/19 11:14:00;;;;;;;2.00;1.00;;;;;;;27.67;33.41;98465.39;105774;1251;61169;-22
2023/07/19 11:16:27;;;;;;;4.30;1.30;;;;;;;27.59;32.87;98463.21;105995;1254;61166;-22
2023/07/19 11:18:54;;;;;;;4.20;1.00;;;;;;;27.82;32.66;98456.39;105974;1251;73354;-22
2023/07/19 11:21:28;;;;;;;2.80;1.20;;;;;;;27.73;31.44;98452.73;106011;1254;74043;-22
2023/07/19 11:23:55;;;;;;;2.40;1.00;;;;;;;27.66;31.77;98448.74;105751;1257;71212;-23
2023/07/19 11:26:22;;;;;;;3.30;1.00;;;;;;;27.55;32.77;98446.27;106006;1252;61098;-23
2023/07/19 11:28:53;;;;;;;3.20;1.00;;;;;;;27.64;31.66;98444.98;105708;1251;61086;-23
2023/07/19 11:31:28;;;;;;;1.20;1.00;;;;;;;27.93;31.50;98438.35;105718;1251;73586;-23
2023/07/19 11:34:04;;;;;;;2.10;1.00;;;;;;;28.19;31.10;98438.05;105735;1251;74308;-23
2023/07/19 11:36:35;;;;;;;3.30;1.10;;;;;;;28.17;31.63;98432.91;105742;1251;71596;-24
2023/07/19 11:39:02;;;;;;;1.80;1.00;;;;;;;28.12;31.44;98430.66;105669;1251;61062;-23
2023/07/19 11:41:30;;;;;;;1.70;1.00;;;;;;;28.06;30.02;98428.34;105613;1259;61167;-23
2023/07/19 11:43:57;;;;;;;1.20;1.10;;;;;;;27.96;31.78;98429.70;105775;1258;71619;-23
2023/07/19 11:46:24;;;;;;;1.10;1.00;;;;;;;27.96;32.25;98429.87;105950;1251;74277;-23
2023/07/19 11:48:52;;;;;;;2.60;1.10;;;;;;;27.66;31.82;98432.90;105971;1252;72322;-23
2023/07/19 11:51:19;;;;;;;1.10;1.00;;;;;;;27.38;31.96;98433.02;105973;1254;61101;-23
2023/07/19 11:53:47;;;;;;;1.50;1.00;;;;;;;27.21;32.13;98431.66;105931;1251;61097;-23
2023/07/19 11:56:15;;;;;;;4.10;1.10;;;;;;;26.93;32.36;98437.40;106012;1254;72866;-23
2023/07/19 11:58:41;;;;;;;1.00;0.90;;;;;;;26.49;32.43;98434.34;105828;1257;74127;-23
2023/07/19 12:01:13;;;;;;;1.30;1.10;;;;;;;26.40;32.97;98430.69;105935;1251;72703;-23
2023/07/19 12:03:42;;;;;;;6.00;1.40;;;;;;;26.39;34.08;98428.33;105644;1256;61208;-24
2023/07/19 12:06:10;;;;;;;2.70;1.20;;;;;;;26.29;34.22;98425.18;105852;1254;61046;-23
2023/07/19 12:08:39;;;;;;;2.70;1.00;;;;;;;26.07;34.86;98428.17;105958;1251;73439;-23
2023/07/19 12:11:06;;;;;;;1.80;1.20;;;;;;;25.97;35.66;98431.52;105958;1251;74856;-23
2023/07/19 12:13:37;;;;;;;3.20;1.20;;;;;;;25.72;35.81;98429.70;105807;1257;72560;-23
2023/07/19 12:16:04;;;;;;;1.30;1.00;;;;;;;25.89;34.31;98424.02;105545;1261;61092;-23
2023/07/19 12:18:32;;;;;;;3.60;1.10;;;;;;;26.41;33.42;98416.39;105697;1258;61141;-23
2023/07/19 12:20:59;;;;;;;2.60;1.00;;;;;;;26.45;34.24;98419.96;105909;1251;72956;-23
2023/07/19 12:23:26;;;;;;;3.10;1.20;;;;;;;26.32;35.39;98419.18;105985;1251;74443;-23
2023/07/19 12:25:56;;;;;;;1.90;1.20;;;;;;;26.28;32.88;98420.04;105833;1256;72026;-23
2023/07/19 12:28:23;;;;;;;1.50;1.00;;;;;;;26.71;33.48;98413.92;105955;1251;61045;-23
2023/07/19 12:30:50;;;;;;;2.50;1.20;;;;;;;27.18;34.69;98410.98;105964;1254;61207;-23
2023/07/19 12:33:18;;;;;;;1.60;1.30;;;;;;;27.13;35.47;98410.67;105927;1251;73000;-23
2023/07/19 12:35:46;;;;;;;3.60;1.00;;;;;;;27.07;35.16;98404.88;105998;1254;74298;-23
2023/07/19 12:38:14;;;;;;;1.90;1.20;;;;;;;27.35;34.72;98403.06;105766;1251;71297;-23
2023/07/19 12:40:41;;;;;;;6.50;1.60;;;;;;;27.52;33.85;98399.67;105926;1257;61109;-23
2023/07/19 12:43:09;;;;;;;3.30;1.30;;;;;;;27.53;32.44;98397.27;105839;1254;61089;-23
2023/07/19 12:45:36;;;;;;;2.60;1.10;;;;;;;27.19;32.74;98403.27;105974;1259;73049;-23
2023/07/19 12:48:04;;;;;;;2.70;1.20;;;;;;;27.07;33.22;98400.71;105967;1257;74410;-23
2023/07/19 12:50:31;;;;;;;4.70;1.60;;;;;;;26.62;32.97;98403.02;105710;1251;72422;-23
2023/07/19 12:52:58;;;;;;;1.70;1.40;;;;;;;26.19;34.06;98404.30;105935;1252;61153;-23
2023/07/19 12:55:25;;;;;;;1.70;1.20;;;;;;;26.43;35.58;98407.45;105842;1254;61098;-23
2023/07/19 12:57:52;;;;;;;1.40;1.00;;;;;;;26.76;35.72;98399.30;105954;1251;72959;-23
2023/07/19 13:00:22;;;;;;;2.10;1.30;;;;;;;26.80;34.38;98395.31;105925;1254;74326;-23
2023/07/19 13:02:50;;;;;;;1.40;1.20;;;;;;;26.65;33.93;98395.83;105596;1259;72618;-23
2023/07/19 13:05:18;;;;;;;1.10;1.00;;;;;;;26.60;35.45;98393.90;106015;1251;61134;-23
2023/07/19 13:07:45;;;;;;;1.60;1.20;;;;;;;26.60;34.94;98394.97;105974;1254;61137;-23
2023/07/19 13:10:14;;;;;;;1.60;1.20;;;;;;;26.84;33.48;98392.63;106056;1251;72772;-24
2023/07/19 13:12:43;;;;;;;3.30;1.10;;;;;;;26.77;33.75;98394.45;105711;1251;74243;-23
2023/07/19 13:15:11;;;;;;;13.90;1.70;;;;;;;26.78;33.02;98388.38;105732;1251;73062;-23
2023/07/19 13:17:41;;;;;;;2.40;1.20;;;;;;;26.98;34.47;98382.08;105793;1251;61137;-23
2023/07/19 13:20:09;;;;;;;3.10;1.00;;;;;;;26.95;32.94;98377.13;105701;1257;61247;-23
2023/07/19 13:22:37;;;;;;;1.20;1.10;;;;;;;26.95;33.21;98378.69;105970;1251;73003;-23
2023/07/19 13:25:05;;;;;;;5.70;1.50;;;;;;;26.82;32.50;98371.04;105957;1251;73131;-23
2023/07/19 13:27:33;;;;;;;2.00;1.30;;;;;;;26.75;33.25;98373.12;105926;1257;72587;-23
2023/07/19 13:30:00;;;;;;;1.90;1.20;;;;;;;26.83;34.00;98370.58;105929;1251;61058;-23
2023/07/19 13:32:28;;;;;;;2.20;1.20;;;;;;;27.02;34.47;98371.27;105958;1254;61053;-23
2023/07/19 13:34:56;;;;;;;3.40;1.30;;;;;;;27.05;33.07;98368.00;105987;1251;73058;-22
2023/07/19 13:37:23;;;;;;;2.40;1.20;;;;;;;27.05;33.49;98365.65;105959;1251;74193;-23
2023/07/19 13:39:50;;;;;;;1.90;1.10;;;;;;;27.09;34.17;98364.48;105758;1255;71671;-23
2023/07/19 13:42:17;;;;;;;1.50;1.00;;;;;;;27.23;33.63;98357.08;105803;1251;61224;-22
2023/07/19 13:44:44;;;;;;;1.80;1.10;;;;;;;27.03;33.28;98356.39;105846;1254;61179;-22
2023/07/19 13:47:12;;;;;;;1.30;1.10;;;;;;;27.20;33.60;98351.59;106022;1251;73684;-22
2023/07/19 13:49:39;;;;;;;2.20;1.20;;;;;;;27.33;32.57;98346.34;106015;1251;74329;-23
2023/07/19 13:52:07;;;;;;;2.10;1.10;;;;;;;27.45;32.05;98344.26;105916;1251;72419;-23
2023/07/19 13:54:35;;;;;;;4.00;1.30;;;;;;;27.52;33.02;98343.27;105893;1251;61125;-22
2023/07/19 13:57:04;;;;;;;1.60;1.20;;;;;;;27.71;33.12;98341.51;105879;1254;61182;-22
2023/07/19 13:59:31;;;;;;;1.60;1.00;;;;;;;27.88;33.17;98338.32;105867;1251;73849;-23
2023/07/19 14:01:59;;;;;;;3.10;1.20;;;;;;;27.89;32.87;98331.64;105751;1251;74677;-23
2023/07/19 14:04:26;;;;;;;1.80;1.30;;;;;;;27.85;33.45;98327.92;105764;1252;72893;-23
2023/07/19 14:06:53;;;;;;;1.70;1.10;;;;;;;27.62;31.77;98320.95;106011;1251;61070;-22
2023/07/19 14:09:22;;;;;;;3.90;1.40;;;;;;;27.43;33.45;98328.72;105887;1252;61090;-22
2023/07/19 14:11:50;;;;;;;1.50;1.30;;;;;;;27.53;32.86;98327.45;105845;1251;73861;-23
2023/07/19 14:14:17;;;;;;;1.20;1.10;;;;;;;27.63;32.75;98325.23;105968;1251;74248;-23
2023/07/19 14:16:44;;;;;;;2.20;1.20;;;;;;;27.59;33.08;98321.52;106017;1252;71504;-23
2023/07/19 14:19:11;;;;;;;1.10;1.00;;;;;;;27.12;34.14;98322.34;105734;1254;61054;-23
2023/07/19 14:21:43;;;;;;;2.40;1.20;;;;;;;26.96;34.35;98327.20;105840;1254;61137;-22
2023/07/19 14:24:10;;;;;;;1.70;1.10;;;;;;;26.81;35.70;98324.55;105838;1251;73597;-22
2023/07/19 14:26:40;;;;;;;2.20;1.10;;;;;;;26.65;36.65;98330.11;105740;1251;73364;-23
2023/07/19 14:29:09;;;;;;;1.70;1.00;;;;;;;26.53;36.86;98331.20;105906;1254;72332;-22
2023/07/19 14:31:37;;;;;;;5.30;1.30;;;;;;;26.59;36.25;98334.73;105869;1251;61073;-23
2023/07/19 14:34:06;;;;;;;3.00;1.80;;;;;;;26.88;37.15;98332.86;106011;1253;61160;-23
2023/07/19 14:36:34;;;;;;;1.70;1.20;;;;;;;27.08;36.89;98327.48;105989;1251;73782;-22